Station Historical Data
Daily Summary for September 28, 2017 Units:  English    Metric   Both
« Previous Day
Next Day »
Daily Weekly Monthly Yearly Custom
  High: Low: Average:
Temperature: 81.2 °F 62.0 °F 69.4 °F
Dew Point: 43.7 °F 34.8 °F 39.3 °F
Humidity: 41 % 23 % 34 %
Wind Speed: 13.0 mph 0.0 mph 2.8 mph
Wind Gust: 16.0 mph - -
Wind:- - SE
Pressure: 29.99 in 29.94 in -
Precipitation: 0.00 in    
Historical Graphs
 
 
Tabular Data for September 28, 2017
Time Temperature Dew Point Pressure Wind Wind Speed Wind Gust Humidity Rainfall Rate (Hourly) solar
00:04 65.9 °F 41.6 °F 29.95 in ESE 4.0 mph 12.0 mph 41 % 0.00 in 0.00 W/m2
00:09 65.9 °F 41.6 °F 29.96 in ESE 4.0 mph 12.0 mph 41 % 0.00 in 0.00 W/m2
00:15 65.8 °F 41.5 °F 29.96 in ESE 5.0 mph 13.0 mph 41 % 0.00 in 0.00 W/m2
00:20 65.8 °F 41.5 °F 29.96 in ESE 9.0 mph 13.0 mph 41 % 0.00 in 0.00 W/m2
00:24 65.8 °F 41.5 °F 29.96 in ESE 8.0 mph 14.0 mph 41 % 0.00 in 0.00 W/m2
00:29 65.7 °F 41.4 °F 29.96 in ESE 9.0 mph 13.0 mph 41 % 0.00 in 0.00 W/m2
00:35 65.6 °F 41.3 °F 29.96 in ESE 4.0 mph 15.0 mph 41 % 0.00 in 0.00 W/m2
00:40 65.6 °F 41.3 °F 29.96 in East 2.0 mph 14.0 mph 41 % 0.00 in 0.00 W/m2
00:45 65.6 °F 41.3 °F 29.96 in Calm   14.0 mph 41 % 0.00 in 0.00 W/m2
00:50 65.5 °F 41.2 °F 29.95 in ESE 5.0 mph 16.0 mph 41 % 0.00 in 0.00 W/m2
00:55 65.4 °F 41.1 °F 29.96 in East 6.0 mph 13.0 mph 41 % 0.00 in 0.00 W/m2
01:00 65.4 °F 41.1 °F 29.95 in ESE 6.0 mph 14.0 mph 41 % 0.00 in 0.00 W/m2
01:05 65.3 °F 41.0 °F 29.95 in ESE 9.0 mph 14.0 mph 41 % 0.00 in 0.00 W/m2
01:10 65.3 °F 41.0 °F 29.95 in ESE 5.0 mph 15.0 mph 41 % 0.00 in 0.00 W/m2
01:15 65.3 °F 41.0 °F 29.95 in East 2.0 mph 12.0 mph 41 % 0.00 in 0.00 W/m2
01:20 65.3 °F 41.0 °F 29.96 in ESE 2.0 mph 13.0 mph 41 % 0.00 in 0.00 W/m2
01:25 65.3 °F 41.0 °F 29.96 in ESE 6.0 mph 12.0 mph 41 % 0.00 in 0.00 W/m2
01:30 65.2 °F 40.9 °F 29.96 in ESE 7.0 mph 13.0 mph 41 % 0.00 in 0.00 W/m2
01:35 65.2 °F 40.9 °F 29.96 in East 5.0 mph 13.0 mph 41 % 0.00 in 0.00 W/m2
01:40 65.2 °F 40.9 °F 29.96 in ESE 2.0 mph 15.0 mph 41 % 0.00 in 0.00 W/m2
01:45 65.2 °F 40.9 °F 29.96 in East 5.0 mph 16.0 mph 41 % 0.00 in 0.00 W/m2
01:50 65.2 °F 40.9 °F 29.96 in East 8.0 mph 13.0 mph 41 % 0.00 in 0.00 W/m2
01:55 65.1 °F 40.8 °F 29.96 in ESE 11.0 mph 14.0 mph 41 % 0.00 in 0.00 W/m2
02:00 65.0 °F 40.8 °F 29.96 in East 9.0 mph 11.0 mph 41 % 0.00 in 0.00 W/m2
02:05 65.0 °F 40.8 °F 29.96 in SE 6.0 mph 12.0 mph 41 % 0.00 in 0.00 W/m2
02:10 64.9 °F 40.7 °F 29.96 in East 5.0 mph 12.0 mph 41 % 0.00 in 0.00 W/m2
02:15 64.8 °F 40.6 °F 29.96 in ESE 2.0 mph 14.0 mph 41 % 0.00 in 0.00 W/m2
02:20 64.7 °F 39.8 °F 29.96 in ESE 9.0 mph 14.0 mph 40 % 0.00 in 0.00 W/m2
02:25 64.6 °F 40.4 °F 29.95 in East 7.0 mph 13.0 mph 41 % 0.00 in 0.00 W/m2
02:30 64.5 °F 39.7 °F 29.95 in ESE 2.0 mph 14.0 mph 40 % 0.00 in 0.00 W/m2
02:35 64.5 °F 39.7 °F 29.95 in ESE 5.0 mph 12.0 mph 40 % 0.00 in 0.00 W/m2
02:40 64.5 °F 39.7 °F 29.95 in East 9.0 mph 13.0 mph 40 % 0.00 in 0.00 W/m2
02:45 64.4 °F 39.6 °F 29.95 in ESE 1.0 mph 16.0 mph 40 % 0.00 in 0.00 W/m2
02:50 64.3 °F 38.8 °F 29.95 in ESE 5.0 mph 12.0 mph 39 % 0.00 in 0.00 W/m2
02:55 64.3 °F 38.8 °F 29.95 in East 11.0 mph 14.0 mph 39 % 0.00 in 0.00 W/m2
03:00 64.3 °F 38.8 °F 29.95 in East 6.0 mph 15.0 mph 39 % 0.00 in 0.00 W/m2
03:05 64.3 °F 38.8 °F 29.95 in East 11.0 mph 12.0 mph 39 % 0.00 in 0.00 W/m2
03:10 64.3 °F 38.8 °F 29.95 in ESE 11.0 mph 14.0 mph 39 % 0.00 in 0.00 W/m2
03:15 64.3 °F 38.8 °F 29.95 in ESE 8.0 mph 15.0 mph 39 % 0.00 in 0.00 W/m2
03:20 64.2 °F 38.8 °F 29.95 in East 7.0 mph 13.0 mph 39 % 0.00 in 0.00 W/m2
03:25 64.1 °F 38.0 °F 29.95 in East 7.0 mph 15.0 mph 38 % 0.00 in 0.00 W/m2
03:30 64.1 °F 38.0 °F 29.95 in ESE 2.0 mph 12.0 mph 38 % 0.00 in 0.00 W/m2
03:35 64.1 °F 38.7 °F 29.95 in ESE 6.0 mph 9.0 mph 39 % 0.00 in 0.00 W/m2
03:40 64.0 °F 37.9 °F 29.95 in ESE 4.0 mph 13.0 mph 38 % 0.00 in 0.00 W/m2
03:45 64.0 °F 38.6 °F 29.95 in Calm   15.0 mph 39 % 0.00 in 0.00 W/m2
03:50 63.9 °F 37.8 °F 29.95 in ESE 5.0 mph 14.0 mph 38 % 0.00 in 0.00 W/m2
03:55 63.9 °F 38.5 °F 29.95 in East 1.0 mph 13.0 mph 39 % 0.00 in 0.00 W/m2
04:05 63.7 °F 37.6 °F 29.95 in Calm   12.0 mph 38 % 0.00 in 0.00 W/m2
04:10 63.6 °F 37.5 °F 29.95 in ESE 6.0 mph 13.0 mph 38 % 0.00 in 0.00 W/m2
04:15 63.5 °F 38.1 °F 29.95 in ESE 11.0 mph 14.0 mph 39 % 0.00 in 0.00 W/m2
04:20 63.5 °F 37.5 °F 29.95 in ESE 9.0 mph 14.0 mph 38 % 0.00 in 0.00 W/m2
04:25 63.4 °F 36.7 °F 29.95 in SE 11.0 mph 12.0 mph 37 % 0.00 in 0.00 W/m2
04:30 63.4 °F 37.4 °F 29.95 in Calm   12.0 mph 38 % 0.00 in 0.00 W/m2
04:35 63.4 °F 36.7 °F 29.95 in Calm   12.0 mph 37 % 0.00 in 0.00 W/m2
04:41 63.3 °F 36.6 °F 29.95 in ESE 7.0 mph 13.0 mph 37 % 0.00 in 0.00 W/m2
04:46 63.3 °F 37.3 °F 29.95 in ESE 5.0 mph 12.0 mph 38 % 0.00 in 0.00 W/m2
04:51 63.3 °F 37.3 °F 29.95 in East 1.0 mph 2.0 mph 38 % 0.00 in 0.00 W/m2
04:56 63.2 °F 37.2 °F 29.95 in ESE 8.0 mph 8.0 mph 38 % 0.00 in 0.00 W/m2
05:01 63.2 °F 37.2 °F 29.95 in ESE 7.0 mph 8.0 mph 38 % 0.00 in 0.00 W/m2
05:06 63.1 °F 37.1 °F 29.95 in ESE 2.0 mph 7.0 mph 38 % 0.00 in 0.00 W/m2
05:11 63.1 °F 37.1 °F 29.96 in Calm     38 % 0.00 in 0.00 W/m2
05:16 63.0 °F 37.0 °F 29.95 in ESE 4.0 mph 4.0 mph 38 % 0.00 in 0.00 W/m2
05:21 63.0 °F 37.0 °F 29.96 in ESE 2.0 mph 8.0 mph 38 % 0.00 in 0.00 W/m2
05:26 62.9 °F 36.9 °F 29.95 in ESE 7.0 mph 7.0 mph 38 % 0.00 in 0.00 W/m2
05:31 62.9 °F 36.9 °F 29.96 in East 7.0 mph 7.0 mph 38 % 0.00 in 0.00 W/m2
05:36 62.7 °F 36.1 °F 29.96 in Calm   11.0 mph 37 % 0.00 in 0.00 W/m2
05:41 62.7 °F 36.1 °F 29.96 in Calm   7.0 mph 37 % 0.00 in 0.00 W/m2
05:46 62.6 °F 36.0 °F 29.96 in Calm   11.0 mph 37 % 0.00 in 0.00 W/m2
05:51 62.5 °F 35.9 °F 29.96 in ESE 4.0 mph 12.0 mph 37 % 0.00 in 0.00 W/m2
05:56 62.5 °F 35.9 °F 29.96 in ESE 1.0 mph 8.0 mph 37 % 0.00 in 0.00 W/m2
06:01 62.4 °F 35.8 °F 29.96 in Calm   7.0 mph 37 % 0.00 in 0.00 W/m2
06:06 62.4 °F 35.8 °F 29.96 in ESE 1.0 mph 13.0 mph 37 % 0.00 in 0.00 W/m2
06:11 62.3 °F 35.7 °F 29.96 in ESE 6.0 mph 11.0 mph 37 % 0.00 in 0.00 W/m2
06:16 62.3 °F 35.7 °F 29.96 in Calm   9.0 mph 37 % 0.00 in 0.00 W/m2
06:21 62.3 °F 35.7 °F 29.97 in East 5.0 mph 13.0 mph 37 % 0.00 in 0.00 W/m2
06:26 62.3 °F 35.7 °F 29.97 in ESE 7.0 mph 9.0 mph 37 % 0.00 in 0.00 W/m2
06:31 62.2 °F 35.6 °F 29.97 in Calm   13.0 mph 37 % 0.00 in 0.00 W/m2
06:36 62.2 °F 35.6 °F 29.97 in Calm   7.0 mph 37 % 0.00 in 0.00 W/m2
06:41 62.2 °F 35.6 °F 29.97 in ESE 9.0 mph 14.0 mph 37 % 0.00 in 0.00 W/m2
06:46 62.1 °F 35.5 °F 29.97 in Calm   12.0 mph 37 % 0.00 in 0.00 W/m2
06:51 62.1 °F 35.5 °F 29.97 in ESE 12.0 mph 12.0 mph 37 % 0.00 in 0.00 W/m2
06:56 62.1 °F 35.5 °F 29.97 in ESE 2.0 mph 11.0 mph 37 % 0.00 in 5.00 W/m2
07:01 62.1 °F 35.5 °F 29.97 in East 13.0 mph 13.0 mph 37 % 0.00 in 7.00 W/m2
07:06 62.1 °F 35.5 °F 29.97 in ESE 6.0 mph 7.0 mph 37 % 0.00 in 11.00 W/m2
07:11 62.0 °F 35.5 °F 29.97 in Calm   11.0 mph 37 % 0.00 in 14.00 W/m2
07:16 62.0 °F 35.5 °F 29.97 in ESE 7.0 mph 7.0 mph 37 % 0.00 in 18.00 W/m2
07:21 62.0 °F 34.8 °F 29.97 in Calm   14.0 mph 36 % 0.00 in 23.00 W/m2
07:26 62.0 °F 35.5 °F 29.98 in East 6.0 mph 12.0 mph 37 % 0.00 in 30.00 W/m2
07:32 62.1 °F 35.5 °F 29.98 in East 7.0 mph 12.0 mph 37 % 0.00 in 42.00 W/m2
07:42 62.1 °F 35.5 °F 29.97 in East 1.0 mph 11.0 mph 37 % 0.00 in 67.00 W/m2
07:47 62.2 °F 35.6 °F 29.97 in East 8.0 mph 9.0 mph 37 % 0.00 in 86.00 W/m2
07:52 62.2 °F 35.6 °F 29.98 in Calm   6.0 mph 37 % 0.00 in 104.00 W/m2
07:57 62.2 °F 36.3 °F 29.98 in ESE 5.0 mph 7.0 mph 38 % 0.00 in 120.00 W/m2
08:02 62.3 °F 36.4 °F 29.98 in Calm   9.0 mph 38 % 0.00 in 139.00 W/m2
08:03 62.3 °F 36.4 °F 29.98 in Calm   11.0 mph 38 % 0.00 in 142.00 W/m2
08:08 62.3 °F 36.4 °F 29.98 in Calm   11.0 mph 38 % 0.00 in 167.00 W/m2
08:13 62.4 °F 36.5 °F 29.98 in East 7.0 mph 13.0 mph 38 % 0.00 in 183.00 W/m2
08:18 62.5 °F 36.6 °F 29.98 in Calm   13.0 mph 38 % 0.00 in 206.00 W/m2
08:23 62.6 °F 37.3 °F 29.98 in ESE 2.0 mph 12.0 mph 39 % 0.00 in 227.00 W/m2
08:28 62.7 °F 37.4 °F 29.98 in Calm   14.0 mph 39 % 0.00 in 248.00 W/m2
08:33 62.8 °F 37.5 °F 29.98 in ESE 1.0 mph 12.0 mph 39 % 0.00 in 264.00 W/m2
08:38 62.9 °F 36.9 °F 29.98 in ESE 4.0 mph 13.0 mph 38 % 0.00 in 283.00 W/m2
08:43 63.1 °F 37.8 °F 29.98 in East 1.0 mph 12.0 mph 39 % 0.00 in 301.00 W/m2
08:46 63.2 °F 37.9 °F 29.98 in Calm   8.0 mph 39 % 0.00 in 309.00 W/m2
08:51 63.4 °F 38.0 °F 29.98 in Calm   7.0 mph 39 % 0.00 in 327.00 W/m2
08:56 63.6 °F 38.2 °F 29.98 in ESE 4.0 mph 11.0 mph 39 % 0.00 in 341.00 W/m2
09:02 63.8 °F 39.0 °F 29.99 in ESE 2.0 mph 9.0 mph 40 % 0.00 in 353.00 W/m2
09:07 64.1 °F 38.7 °F 29.99 in East 6.0 mph 8.0 mph 39 % 0.00 in 374.00 W/m2
09:12 64.3 °F 38.2 °F 29.99 in ESE 5.0 mph 7.0 mph 38 % 0.00 in 392.00 W/m2
09:17 64.5 °F 38.3 °F 29.99 in Calm   9.0 mph 38 % 0.00 in 406.00 W/m2
09:22 64.9 °F 39.4 °F 29.99 in Calm   5.0 mph 39 % 0.00 in 422.00 W/m2
09:27 65.2 °F 39.6 °F 29.99 in Calm   13.0 mph 39 % 0.00 in 438.00 W/m2
09:32 65.7 °F 40.1 °F 29.99 in Calm   6.0 mph 39 % 0.00 in 450.00 W/m2
09:37 66.0 °F 39.7 °F 29.99 in Calm     38 % 0.00 in 464.00 W/m2
09:42 66.4 °F 40.0 °F 29.99 in Calm   11.0 mph 38 % 0.00 in 480.00 W/m2
09:47 66.8 °F 40.4 °F 29.99 in Calm   5.0 mph 38 % 0.00 in 494.00 W/m2
09:52 67.3 °F 40.2 °F 29.99 in Calm   1.0 mph 37 % 0.00 in 506.00 W/m2
09:57 67.7 °F 40.5 °F 29.99 in Calm     37 % 0.00 in 520.00 W/m2
10:02 68.2 °F 41.7 °F 29.99 in Calm   2.0 mph 38 % 0.00 in 533.00 W/m2
10:07 68.6 °F 42.0 °F 29.99 in Calm   2.0 mph 38 % 0.00 in 547.00 W/m2
10:12 68.9 °F 42.3 °F 29.99 in Calm     38 % 0.00 in 555.00 W/m2
10:17 69.3 °F 41.9 °F 29.99 in Calm   2.0 mph 37 % 0.00 in 568.00 W/m2
10:22 69.8 °F 43.1 °F 29.99 in Calm     38 % 0.00 in 578.00 W/m2
10:27 70.0 °F 43.2 °F 29.99 in Calm     38 % 0.00 in 591.00 W/m2
10:32 70.4 °F 43.6 °F 29.99 in ESE 1.0 mph 2.0 mph 38 % 0.00 in 601.00 W/m2
10:37 70.7 °F 41.0 °F 29.99 in Calm   4.0 mph 34 % 0.00 in 613.00 W/m2
10:42 71.0 °F 40.5 °F 29.99 in Calm     33 % 0.00 in 626.00 W/m2
10:47 71.6 °F 41.0 °F 29.99 in ESE 1.0 mph 1.0 mph 33 % 0.00 in 636.00 W/m2
10:52 72.2 °F 40.7 °F 29.99 in Calm   1.0 mph 32 % 0.00 in 643.00 W/m2
10:53 72.2 °F 40.7 °F 29.99 in Calm   1.0 mph 32 % 0.00 in 645.00 W/m2
10:58 72.6 °F 41.1 °F 29.99 in Calm     32 % 0.00 in 654.00 W/m2
11:03 73.0 °F 42.2 °F 29.99 in Calm   2.0 mph 33 % 0.00 in 664.00 W/m2
11:08 73.4 °F 41.8 °F 29.99 in Calm   7.0 mph 32 % 0.00 in 673.00 W/m2
11:13 73.7 °F 41.2 °F 29.99 in Calm   2.0 mph 31 % 0.00 in 680.00 W/m2
11:18 74.2 °F 42.5 °F 29.99 in Calm     32 % 0.00 in 687.00 W/m2
11:23 74.7 °F 42.9 °F 29.99 in Calm     32 % 0.00 in 696.00 W/m2
11:28 75.2 °F 41.7 °F 29.99 in SE 4.0 mph 4.0 mph 30 % 0.00 in 705.00 W/m2
11:33 75.6 °F 43.7 °F 29.99 in Calm   7.0 mph 32 % 0.00 in 712.00 W/m2
11:38 75.8 °F 43.0 °F 29.99 in Calm   1.0 mph 31 % 0.00 in 717.00 W/m2
11:43 76.1 °F 43.3 °F 29.99 in Calm   7.0 mph 31 % 0.00 in 724.00 W/m2
11:48 76.4 °F 41.8 °F 29.98 in South 5.0 mph 7.0 mph 29 % 0.00 in 729.00 W/m2
11:53 76.8 °F 41.3 °F 29.98 in Calm   2.0 mph 28 % 0.00 in 733.00 W/m2
11:58 77.2 °F 41.6 °F 29.98 in Calm   2.0 mph 28 % 0.00 in 738.00 W/m2
12:03 77.5 °F 41.9 °F 29.98 in Calm   1.0 mph 28 % 0.00 in 744.00 W/m2
12:09 77.7 °F 41.1 °F 29.98 in Calm   6.0 mph 27 % 0.00 in 745.00 W/m2
12:14 77.8 °F 42.1 °F 29.98 in SSW 6.0 mph 9.0 mph 28 % 0.00 in 745.00 W/m2
12:19 77.9 °F 41.3 °F 29.98 in Calm   8.0 mph 27 % 0.00 in 751.00 W/m2
12:24 77.8 °F 42.1 °F 29.98 in SW 1.0 mph 7.0 mph 28 % 0.00 in 754.00 W/m2
12:29 77.9 °F 43.1 °F 29.98 in Calm   5.0 mph 29 % 0.00 in 754.00 W/m2
12:34 78.1 °F 41.4 °F 29.98 in Calm   9.0 mph 27 % 0.00 in 754.00 W/m2
12:39 78.3 °F 41.6 °F 29.98 in Calm   7.0 mph 27 % 0.00 in 758.00 W/m2
12:44 78.5 °F 41.8 °F 29.98 in Calm   10.0 mph 27 % 0.00 in 759.00 W/m2
12:49 78.7 °F 41.0 °F 29.98 in SSW 4.0 mph 6.0 mph 26 % 0.00 in 758.00 W/m2
12:54 78.8 °F 41.0 °F 29.97 in Calm   5.0 mph 26 % 0.00 in 758.00 W/m2
12:59 78.9 °F 41.1 °F 29.97 in Calm   8.0 mph 26 % 0.00 in 756.00 W/m2
13:04 79.0 °F 40.2 °F 29.97 in Calm   6.0 mph 25 % 0.00 in 758.00 W/m2
13:09 79.2 °F 40.4 °F 29.97 in West 1.0 mph 9.0 mph 25 % 0.00 in 756.00 W/m2
13:14 79.4 °F 39.5 °F 29.97 in WSW 1.0 mph 10.0 mph 24 % 0.00 in 754.00 W/m2
13:19 79.5 °F 39.6 °F 29.97 in West 5.0 mph 9.0 mph 24 % 0.00 in 751.00 W/m2
13:24 79.6 °F 40.7 °F 29.97 in SSW 4.0 mph 9.0 mph 25 % 0.00 in 747.00 W/m2
13:29 79.9 °F 39.9 °F 29.96 in Calm   9.0 mph 24 % 0.00 in 745.00 W/m2
13:34 80.0 °F 41.1 °F 29.96 in Calm   10.0 mph 25 % 0.00 in 744.00 W/m2
13:39 80.1 °F 40.1 °F 29.96 in Calm   10.0 mph 24 % 0.00 in 738.00 W/m2
13:44 80.1 °F 39.0 °F 29.96 in SW 1.0 mph 11.0 mph 23 % 0.00 in 731.00 W/m2
13:49 80.3 °F 41.3 °F 29.96 in SW 1.0 mph 10.0 mph 25 % 0.00 in 728.00 W/m2
13:54 80.5 °F 41.5 °F 29.96 in SSW 7.0 mph 12.0 mph 25 % 0.00 in 719.00 W/m2
13:59 80.6 °F 41.6 °F 29.96 in SW 1.0 mph 9.0 mph 25 % 0.00 in 717.00 W/m2
14:04 80.8 °F 41.7 °F 29.96 in SW 8.0 mph 12.0 mph 25 % 0.00 in 712.00 W/m2
14:09 81.0 °F 40.8 °F 29.96 in Calm   10.0 mph 24 % 0.00 in 698.00 W/m2
14:14 81.2 °F 41.0 °F 29.96 in Calm   4.0 mph 24 % 0.00 in 698.00 W/m2
14:19 81.0 °F 40.8 °F 29.95 in West 6.0 mph 7.0 mph 24 % 0.00 in 693.00 W/m2
14:22 80.8 °F 39.6 °F 29.95 in Calm   8.0 mph 23 % 0.00 in 687.00 W/m2
14:27 80.3 °F 39.2 °F 29.96 in WSW 6.0 mph 9.0 mph 23 % 0.00 in 679.00 W/m2
14:32 80.3 °F 40.3 °F 29.95 in South 6.0 mph 7.0 mph 24 % 0.00 in 671.00 W/m2
14:37 80.5 °F 40.4 °F 29.95 in WSW 7.0 mph 12.0 mph 24 % 0.00 in 661.00 W/m2
14:38 80.5 °F 40.4 °F 29.95 in Calm   12.0 mph 24 % 0.00 in 663.00 W/m2
14:43 80.3 °F 40.3 °F 29.95 in Calm   1.0 mph 24 % 0.00 in 652.00 W/m2
14:48 80.3 °F 40.3 °F 29.95 in SW 5.0 mph 12.0 mph 24 % 0.00 in 643.00 W/m2
14:53 80.2 °F 40.2 °F 29.95 in Calm   8.0 mph 24 % 0.00 in 631.00 W/m2
14:58 80.2 °F 40.2 °F 29.95 in WSW 7.0 mph 8.0 mph 24 % 0.00 in 613.00 W/m2
15:03 80.2 °F 40.2 °F 29.95 in Calm   9.0 mph 24 % 0.00 in 610.00 W/m2
15:08 80.1 °F 41.1 °F 29.95 in SW 2.0 mph 7.0 mph 25 % 0.00 in 605.00 W/m2
15:13 79.9 °F 41.0 °F 29.95 in SW 5.0 mph 9.0 mph 25 % 0.00 in 592.00 W/m2
15:18 79.8 °F 39.8 °F 29.95 in West 2.0 mph 7.0 mph 24 % 0.00 in 580.00 W/m2
15:23 79.7 °F 39.8 °F 29.95 in SW 7.0 mph 8.0 mph 24 % 0.00 in 568.00 W/m2
15:28 79.6 °F 40.7 °F 29.95 in SSW 8.0 mph 12.0 mph 25 % 0.00 in 557.00 W/m2
15:33 79.6 °F 39.7 °F 29.95 in SSW 2.0 mph 8.0 mph 24 % 0.00 in 547.00 W/m2
15:38 79.6 °F 40.7 °F 29.95 in SW 7.0 mph 11.0 mph 25 % 0.00 in 529.00 W/m2
15:43 79.5 °F 40.6 °F 29.94 in West 2.0 mph 8.0 mph 25 % 0.00 in 522.00 W/m2
15:48 79.5 °F 40.6 °F 29.94 in SSW 3.0 mph 12.0 mph 25 % 0.00 in 508.00 W/m2
15:53 79.4 °F 40.5 °F 29.94 in Calm   7.0 mph 25 % 0.00 in 496.00 W/m2
15:58 79.3 °F 40.5 °F 29.94 in WSW 9.0 mph 12.0 mph 25 % 0.00 in 482.00 W/m2
16:03 79.3 °F 41.5 °F 29.94 in Calm   4.0 mph 26 % 0.00 in 438.00 W/m2
16:08 79.1 °F 41.3 °F 29.94 in Calm   7.0 mph 26 % 0.00 in 455.00 W/m2
16:13 79.1 °F 40.3 °F 29.94 in SW 7.0 mph 8.0 mph 25 % 0.00 in 443.00 W/m2
16:18 79.0 °F 40.2 °F 29.94 in Calm   2.0 mph 25 % 0.00 in 431.00 W/m2
16:23 78.9 °F 40.1 °F 29.94 in Calm   9.0 mph 25 % 0.00 in 413.00 W/m2
16:28 78.7 °F 38.9 °F 29.94 in WSW 6.0 mph 6.0 mph 24 % 0.00 in 399.00 W/m2
16:33 78.5 °F 39.8 °F 29.94 in SW 13.0 mph 14.0 mph 25 % 0.00 in 381.00 W/m2
16:38 78.4 °F 38.7 °F 29.94 in South 4.0 mph 9.0 mph 24 % 0.00 in 369.00 W/m2
16:43 78.4 °F 39.7 °F 29.94 in Calm   2.0 mph 25 % 0.00 in 352.00 W/m2
16:48 78.3 °F 39.6 °F 29.94 in SW 1.0 mph 8.0 mph 25 % 0.00 in 339.00 W/m2
16:53 78.3 °F 39.6 °F 29.94 in Calm   6.0 mph 25 % 0.00 in 323.00 W/m2
16:58 78.3 °F 38.6 °F 29.95 in West 4.0 mph 11.0 mph 24 % 0.00 in 302.00 W/m2
17:04 78.1 °F 38.4 °F 29.94 in Calm   6.0 mph 24 % 0.00 in 292.00 W/m2
17:09 78.1 °F 38.4 °F 29.94 in Calm   3.0 mph 24 % 0.00 in 276.00 W/m2
17:14 78.0 °F 39.4 °F 29.95 in WSW 1.0 mph 7.0 mph 25 % 0.00 in 258.00 W/m2
17:19 77.8 °F 39.2 °F 29.95 in SSW 5.0 mph 7.0 mph 25 % 0.00 in 241.00 W/m2
17:24 77.6 °F 39.0 °F 29.95 in Calm   7.0 mph 25 % 0.00 in 227.00 W/m2
17:29 77.5 °F 40.0 °F 29.95 in Calm   4.0 mph 26 % 0.00 in 211.00 W/m2
17:34 77.2 °F 38.7 °F 29.95 in SW 6.0 mph 8.0 mph 25 % 0.00 in 192.00 W/m2
17:39 77.1 °F 38.6 °F 29.94 in Calm   9.0 mph 25 % 0.00 in 172.00 W/m2
17:44 76.9 °F 39.4 °F 29.95 in Calm   5.0 mph 26 % 0.00 in 155.00 W/m2
17:49 76.8 °F 38.3 °F 29.95 in Calm   8.0 mph 25 % 0.00 in 135.00 W/m2
17:54 76.6 °F 38.2 °F 29.95 in Calm   7.0 mph 25 % 0.00 in 116.00 W/m2
17:59 76.5 °F 40.1 °F 29.95 in Calm     27 % 0.00 in 97.00 W/m2
18:04 76.3 °F 39.9 °F 29.95 in Calm   6.0 mph 27 % 0.00 in 79.00 W/m2
18:09 76.0 °F 40.6 °F 29.94 in Calm   1.0 mph 28 % 0.00 in 63.00 W/m2
18:14 75.7 °F 40.3 °F 29.95 in Calm     28 % 0.00 in 49.00 W/m2
18:19 75.4 °F 41.0 °F 29.95 in Calm   2.0 mph 29 % 0.00 in 37.00 W/m2
18:24 74.9 °F 41.4 °F 29.95 in Calm   2.0 mph 30 % 0.00 in 28.00 W/m2
18:29 74.4 °F 41.0 °F 29.95 in Calm   1.0 mph 30 % 0.00 in 21.00 W/m2
18:34 73.7 °F 41.2 °F 29.95 in Calm   1.0 mph 31 % 0.00 in 16.00 W/m2
18:39 73.2 °F 40.8 °F 29.95 in Calm     31 % 0.00 in 12.00 W/m2
18:40 73.2 °F 40.8 °F 29.95 in Calm     31 % 0.00 in 12.00 W/m2
18:45 72.8 °F 40.4 °F 29.95 in Calm   1.0 mph 31 % 0.00 in 7.00 W/m2
18:50 72.2 °F 39.9 °F 29.95 in Calm     31 % 0.00 in 5.00 W/m2
18:55 71.7 °F 40.3 °F 29.95 in Calm     32 % 0.00 in 0.00 W/m2
19:00 71.2 °F 39.9 °F 29.95 in Calm     32 % 0.00 in 0.00 W/m2
19:05 70.7 °F 39.4 °F 29.95 in Calm     32 % 0.00 in 0.00 W/m2
19:10 70.2 °F 39.0 °F 29.95 in Calm   1.0 mph 32 % 0.00 in 0.00 W/m2
19:15 69.8 °F 39.4 °F 29.94 in Calm     33 % 0.00 in 0.00 W/m2
19:20 69.4 °F 39.1 °F 29.94 in Calm     33 % 0.00 in 0.00 W/m2
19:25 69.1 °F 38.8 °F 29.94 in Calm     33 % 0.00 in 0.00 W/m2
19:30 68.9 °F 38.6 °F 29.95 in Calm     33 % 0.00 in 0.00 W/m2
19:35 68.5 °F 38.3 °F 29.94 in Calm     33 % 0.00 in 0.00 W/m2
19:40 68.3 °F 38.1 °F 29.94 in Calm     33 % 0.00 in 0.00 W/m2
19:45 68.0 °F 37.8 °F 29.95 in Calm     33 % 0.00 in 0.00 W/m2
19:50 67.8 °F 38.4 °F 29.95 in Calm     34 % 0.00 in 0.00 W/m2
19:55 67.7 °F 38.3 °F 29.95 in Calm     34 % 0.00 in 0.00 W/m2
20:00 67.5 °F 38.2 °F 29.95 in Calm     34 % 0.00 in 0.00 W/m2
20:05 67.3 °F 38.0 °F 29.95 in Calm     34 % 0.00 in 0.00 W/m2
20:10 67.1 °F 37.8 °F 29.96 in Calm     34 % 0.00 in 0.00 W/m2
20:20 67.0 °F 38.5 °F 29.96 in Calm     35 % 0.00 in 0.00 W/m2
20:25 66.9 °F 38.4 °F 29.96 in Calm     35 % 0.00 in 0.00 W/m2
20:26 66.9 °F 38.4 °F 29.96 in Calm     35 % 0.00 in 0.00 W/m2
20:29 66.8 °F 38.3 °F 29.96 in Calm   1.0 mph 35 % 0.00 in 0.00 W/m2
20:31 66.8 °F 38.3 °F 29.96 in Calm     35 % 0.00 in 0.00 W/m2
20:36 66.7 °F 38.2 °F 29.96 in Calm     35 % 0.00 in 0.00 W/m2
20:38 66.7 °F 38.2 °F 29.96 in SW 3.0 mph 3.0 mph 35 % 0.00 in 0.00 W/m2
20:43 66.6 °F 38.1 °F 29.96 in Calm   2.0 mph 35 % 0.00 in 0.00 W/m2
20:48 66.5 °F 38.0 °F 29.97 in Calm   3.0 mph 35 % 0.00 in 0.00 W/m2
20:53 66.5 °F 38.0 °F 29.97 in Calm   4.0 mph 35 % 0.00 in 0.00 W/m2
20:58 66.4 °F 38.7 °F 29.97 in South 3.0 mph 6.0 mph 36 % 0.00 in 0.00 W/m2
21:03 66.4 °F 38.7 °F 29.96 in Calm   7.0 mph 36 % 0.00 in 0.00 W/m2
21:08 66.4 °F 38.7 °F 29.97 in SE 4.0 mph 8.0 mph 36 % 0.00 in 0.00 W/m2
21:13 66.3 °F 38.6 °F 29.96 in ESE 4.0 mph 7.0 mph 36 % 0.00 in 0.00 W/m2
21:18 66.3 °F 38.6 °F 29.97 in ESE 2.0 mph 7.0 mph 36 % 0.00 in 0.00 W/m2
21:23 66.2 °F 38.5 °F 29.97 in ESE 6.0 mph 7.0 mph 36 % 0.00 in 0.00 W/m2
21:28 66.2 °F 39.2 °F 29.97 in ESE 5.0 mph 9.0 mph 37 % 0.00 in 0.00 W/m2
21:33 66.1 °F 39.1 °F 29.96 in Calm   8.0 mph 37 % 0.00 in 0.00 W/m2
21:38 66.1 °F 39.1 °F 29.96 in ESE 2.0 mph 9.0 mph 37 % 0.00 in 0.00 W/m2
21:43 66.1 °F 39.1 °F 29.96 in ESE 1.0 mph 8.0 mph 37 % 0.00 in 0.00 W/m2
21:48 66.0 °F 39.0 °F 29.96 in ESE 6.0 mph 9.0 mph 37 % 0.00 in 0.00 W/m2
21:53 66.0 °F 39.0 °F 29.96 in Calm   7.0 mph 37 % 0.00 in 0.00 W/m2
21:58 65.9 °F 38.9 °F 29.96 in ESE 8.0 mph 9.0 mph 37 % 0.00 in 0.00 W/m2
22:03 65.8 °F 38.8 °F 29.96 in East 6.0 mph 9.0 mph 37 % 0.00 in 0.00 W/m2
22:08 65.7 °F 38.7 °F 29.96 in East 1.0 mph 12.0 mph 37 % 0.00 in 0.00 W/m2
22:13 65.7 °F 39.4 °F 29.96 in Calm   14.0 mph 38 % 0.00 in 0.00 W/m2
22:18 65.5 °F 39.2 °F 29.96 in ESE 7.0 mph 11.0 mph 38 % 0.00 in 0.00 W/m2
22:23 65.5 °F 39.2 °F 29.96 in Calm   9.0 mph 38 % 0.00 in 0.00 W/m2
22:28 65.4 °F 39.2 °F 29.96 in East 6.0 mph 13.0 mph 38 % 0.00 in 0.00 W/m2
22:34 65.3 °F 39.1 °F 29.96 in ESE 8.0 mph 16.0 mph 38 % 0.00 in 0.00 W/m2
22:39 65.2 °F 39.0 °F 29.96 in East 2.0 mph 13.0 mph 38 % 0.00 in 0.00 W/m2
22:44 65.2 °F 39.0 °F 29.96 in East 11.0 mph 12.0 mph 38 % 0.00 in 0.00 W/m2
22:49 65.1 °F 38.9 °F 29.96 in ESE 1.0 mph 12.0 mph 38 % 0.00 in 0.00 W/m2
22:54 65.0 °F 39.5 °F 29.96 in ESE 11.0 mph 14.0 mph 39 % 0.00 in 0.00 W/m2
22:59 64.9 °F 39.4 °F 29.96 in ESE 1.0 mph 12.0 mph 39 % 0.00 in 0.00 W/m2
23:04 64.9 °F 39.4 °F 29.96 in ESE 4.0 mph 16.0 mph 39 % 0.00 in 0.00 W/m2
23:09 64.8 °F 39.3 °F 29.96 in ESE 5.0 mph 11.0 mph 39 % 0.00 in 0.00 W/m2
23:14 64.8 °F 39.3 °F 29.96 in Calm   12.0 mph 39 % 0.00 in 0.00 W/m2
23:19 64.7 °F 39.2 °F 29.96 in Calm   12.0 mph 39 % 0.00 in 0.00 W/m2
23:24 64.6 °F 39.1 °F 29.96 in ESE 9.0 mph 13.0 mph 39 % 0.00 in 0.00 W/m2
23:29 64.6 °F 39.1 °F 29.96 in ESE 7.0 mph 14.0 mph 39 % 0.00 in 0.00 W/m2
23:34 64.5 °F 39.0 °F 29.96 in East 12.0 mph 15.0 mph 39 % 0.00 in 0.00 W/m2
23:39 64.5 °F 39.0 °F 29.96 in East 4.0 mph 15.0 mph 39 % 0.00 in 0.00 W/m2
23:44 64.4 °F 38.9 °F 29.96 in ESE 2.0 mph 15.0 mph 39 % 0.00 in 0.00 W/m2
23:49 64.5 °F 39.0 °F 29.96 in ESE 6.0 mph 15.0 mph 39 % 0.00 in 0.00 W/m2
23:54 64.4 °F 38.9 °F 29.96 in ESE 5.0 mph 13.0 mph 39 % 0.00 in 0.00 W/m2
23:59 64.4 °F 38.9 °F 29.96 in ESE 4.0 mph 12.0 mph 39 % 0.00 in 0.00 W/m2
Juneau County Weather
Compliments of Weather Underground - 4.5 mb
 WU-history PHP script courtesy of   Juneau County Weather.
powered by Cumulus v1.9.3 (1059)
Ambient Weather VWS v14.00
Top Contact Website Map Copyright © 2007 - 2018 Foresthillweather.com Never base important decisions on this or any weather information obtained from the Internet